Astrid — PCDS — position and weather

sailwx.info

Track history (hours):
 
Tides and Currents Weather Stations Pressure Air Temp Water Temp Dewpoint Dewpoint Depression Visibility Wind Speed Wind Dir Waves Ship Positions

Astrid

Last reported at 2013-Jul-23 16:32 UTC. Time now 2017-Oct-22 19:20 UTC.
Position N 51°42' W 008°27'.
Warning: this ship's position is years out of date!

Length 42 m; draft 2.7 m.

Type: Sailing vessel. MMSI: 244361000.

Date/timePositionNaut miles runAvg speedWind from/ knotsBaromVisibWave heightAir tempDewpointWater temp
2013-Jul-23 16:32N 51°42' W 008°27'0 0.0
2013-Jul-23 15:32N 51°42' W 008°27'0 0.0
2013-Jul-23 14:32N 51°42' W 008°27'0 0.0
2013-Jul-23 13:32N 51°42' W 008°27'0 0.0
2013-Jul-23 12:32N 51°42' W 008°27'1 0.8
2013-Jul-23 11:31N 51°41' W 008°26'4 4.3
2013-Jul-23 10:33N 51°42' W 008°20'4 4.2
2013-Jul-23 09:33N 51°46' W 008°17'5 5.1
2013-Jul-23 08:33N 51°51' W 008°16'5 4.9
2013-Jul-23 07:33N 51°54' W 008°23'3 2.9
2013-Jul-23 06:33N 51°54' W 008°28'0 0.0
2013-Jul-23 05:33N 51°54' W 008°28'0 0.0
2013-Jul-23 04:33N 51°54' W 008°28'0 0.0
2013-Jul-23 03:33N 51°54' W 008°28'0 0.0
2013-Jul-23 02:33N 51°54' W 008°28'0 0.0
2013-Jul-23 01:23N 51°54' W 008°28'0 0.0
2013-Jul-23 00:27N 51°54' W 008°28'0 0.0
2013-Jul-22 23:30N 51°54' W 008°28'0 0.0
2013-Jul-22 22:33N 51°54' W 008°28'0 0.0
2013-Jul-22 21:33N 51°54' W 008°28'0 0.0
2013-Jul-22 20:33N 51°54' W 008°28'0 0.0
2013-Jul-22 19:33N 51°54' W 008°28'0 0.0
2013-Jul-22 18:33N 51°54' W 008°28'0 0.0
2013-Jul-22 17:33N 51°54' W 008°28'0 0.0
2013-Jul-22 14:21N 51°54' W 008°28'0 0.0
2013-Jul-22 12:31N 51°54' W 008°28'0 0.0
2013-Jul-22 11:28N 51°54' W 008°28'0 0.0
2013-Jul-22 10:31N 51°54' W 008°28'0 0.0
2013-Jul-22 09:31N 51°54' W 008°28'0 0.0
2013-Jul-22 08:28N 51°54' W 008°28'0 0.0
2013-Jul-22 07:31N 51°54' W 008°28'0 0.0
2013-Jul-22 06:31N 51°54' W 008°28'0 0.0
2013-Jul-22 05:28N 51°54' W 008°28'0 0.0
2013-Jul-22 04:31N 51°54' W 008°28'0 0.0
2013-Jul-22 03:31N 51°54' W 008°28'0 0.0
2013-Jul-22 02:31N 51°54' W 008°28'0 0.0
2013-Jul-22 01:31N 51°54' W 008°28'0 0.0
2013-Jul-22 00:31N 51°54' W 008°28'0 0.0
2013-Jul-21 23:28N 51°54' W 008°28'0 0.0
2013-Jul-21 22:31N 51°54' W 008°28'0 0.0
2013-Jul-21 21:31N 51°54' W 008°28'0 0.0
2013-Jul-21 20:31N 51°54' W 008°28'0 0.0
2013-Jul-21 19:31N 51°54' W 008°28'0 0.0
2013-Jul-21 18:28N 51°54' W 008°28'0 0.0
2013-Jul-21 17:31N 51°54' W 008°28'0 0.0
2013-Jul-21 16:31N 51°54' W 008°28'0 0.0
2013-Jul-21 15:31N 51°54' W 008°28'0 0.0
2013-Jul-21 14:31N 51°54' W 008°28'0 0.0
2013-Jul-21 13:31N 51°54' W 008°28'0 0.0
2013-Jul-21 12:19N 51°54' W 008°28'0 0.0
2013-Jul-21 11:31N 51°54' W 008°28'0 0.0
2013-Jul-21 10:31N 51°54' W 008°28'0 0.3
2013-Jul-21 09:33N 51°54' W 008°27'5 5.0
2013-Jul-21 08:33N 51°52' W 008°20'3 3.2
2013-Jul-21 07:33N 51°50' W 008°16'4 3.8
2013-Jul-21 06:33N 51°46' W 008°15'3 3.0
2013-Jul-21 05:34N 51°44' W 008°12'3 3.2
2013-Jul-21 04:34N 51°42' W 008°08'3 3.3
2013-Jul-21 03:34N 51°40' W 008°04'3 3.2
2013-Jul-21 02:33N 51°38' W 008°00'3 3.1
2013-Jul-21 01:33N 51°36' W 007°57'4 3.4
2013-Jul-21 00:28N 51°33' W 007°53'4 4.4
2013-Jul-20 23:29N 51°30' W 007°48'4 4.6
2013-Jul-20 22:34N 51°26' W 007°43'5 4.1
2013-Jul-20 21:24N 51°23' W 007°38'  
2013-Jul-15 19:03N 50°34' W 002°02'4 7.5
2013-Jul-15 18:31N 50°35' W 001°55'7 7.2
2013-Jul-15 17:32N 50°38' W 001°45'8 7.3
2013-Jul-15 16:26N 50°42' W 001°34'7 8.0
2013-Jul-15 15:33N 50°45' W 001°24'6 5.7
2013-Jul-15 14:33N 50°49' W 001°18'7 0.3
2013-Jul-14 14:25N 50°54' W 001°25'0 0.0
2013-Jul-14 13:31N 50°54' W 001°25'0 0.0
2013-Jul-14 12:31N 50°54' W 001°25'0 0.0
2013-Jul-14 11:31N 50°54' W 001°25'0 0.0
2013-Jul-14 10:28N 50°54' W 001°25'0 0.0
2013-Jul-14 02:31N 50°54' W 001°25'0 0.0
2013-Jul-13 20:19N 50°54' W 001°25'0 0.0
2013-Jul-13 18:13N 50°54' W 001°25'  
Track history (hours):
 
Tides and Currents Weather Stations Pressure Air Temp Water Temp Dewpoint Dewpoint Depression Visibility Wind Speed Wind Dir Waves Ship Positions

Astrid

Last reported at 2013-Jul-23 16:32 UTC. Time now 2017-Oct-22 19:20 UTC.
Position N 51°42' W 008°27'.
Warning: this ship's position is years out of date!

Length 42 m; draft 2.7 m.

Type: Sailing vessel. MMSI: 244361000.

Date/timePositionNaut miles runAvg speedWind from/ knotsBaromVisibWave heightAir tempDewpointWater temp
2013-Jul-23 16:32N 51°42' W 008°27'0 0.0
2013-Jul-23 15:32N 51°42' W 008°27'0 0.0
2013-Jul-23 14:32N 51°42' W 008°27'0 0.0
2013-Jul-23 13:32N 51°42' W 008°27'0 0.0
2013-Jul-23 12:32N 51°42' W 008°27'1 0.8
2013-Jul-23 11:31N 51°41' W 008°26'4 4.3
2013-Jul-23 10:33N 51°42' W 008°20'4 4.2
2013-Jul-23 09:33N 51°46' W 008°17'5 5.1
2013-Jul-23 08:33N 51°51' W 008°16'5 4.9
2013-Jul-23 07:33N 51°54' W 008°23'3 2.9
2013-Jul-23 06:33N 51°54' W 008°28'0 0.0
2013-Jul-23 05:33N 51°54' W 008°28'0 0.0
2013-Jul-23 04:33N 51°54' W 008°28'0 0.0
2013-Jul-23 03:33N 51°54' W 008°28'0 0.0
2013-Jul-23 02:33N 51°54' W 008°28'0 0.0
2013-Jul-23 01:23N 51°54' W 008°28'0 0.0
2013-Jul-23 00:27N 51°54' W 008°28'0 0.0
2013-Jul-22 23:30N 51°54' W 008°28'0 0.0
2013-Jul-22 22:33N 51°54' W 008°28'0 0.0
2013-Jul-22 21:33N 51°54' W 008°28'0 0.0
2013-Jul-22 20:33N 51°54' W 008°28'0 0.0
2013-Jul-22 19:33N 51°54' W 008°28'0 0.0
2013-Jul-22 18:33N 51°54' W 008°28'0 0.0
2013-Jul-22 17:33N 51°54' W 008°28'0 0.0
2013-Jul-22 14:21N 51°54' W 008°28'0 0.0
2013-Jul-22 12:31N 51°54' W 008°28'0 0.0
2013-Jul-22 11:28N 51°54' W 008°28'0 0.0
2013-Jul-22 10:31N 51°54' W 008°28'0 0.0
2013-Jul-22 09:31N 51°54' W 008°28'0 0.0
2013-Jul-22 08:28N 51°54' W 008°28'0 0.0
2013-Jul-22 07:31N 51°54' W 008°28'0 0.0
2013-Jul-22 06:31N 51°54' W 008°28'0 0.0
2013-Jul-22 05:28N 51°54' W 008°28'0 0.0
2013-Jul-22 04:31N 51°54' W 008°28'0 0.0
2013-Jul-22 03:31N 51°54' W 008°28'0 0.0
2013-Jul-22 02:31N 51°54' W 008°28'0 0.0
2013-Jul-22 01:31N 51°54' W 008°28'0 0.0
2013-Jul-22 00:31N 51°54' W 008°28'0 0.0
2013-Jul-21 23:28N 51°54' W 008°28'0 0.0
2013-Jul-21 22:31N 51°54' W 008°28'0 0.0
2013-Jul-21 21:31N 51°54' W 008°28'0 0.0
2013-Jul-21 20:31N 51°54' W 008°28'0 0.0
2013-Jul-21 19:31N 51°54' W 008°28'0 0.0
2013-Jul-21 18:28N 51°54' W 008°28'0 0.0
2013-Jul-21 17:31N 51°54' W 008°28'0 0.0
2013-Jul-21 16:31N 51°54' W 008°28'0 0.0
2013-Jul-21 15:31N 51°54' W 008°28'0 0.0
2013-Jul-21 14:31N 51°54' W 008°28'0 0.0
2013-Jul-21 13:31N 51°54' W 008°28'0 0.0
2013-Jul-21 12:19N 51°54' W 008°28'0 0.0
2013-Jul-21 11:31N 51°54' W 008°28'0 0.0
2013-Jul-21 10:31N 51°54' W 008°28'0 0.3
2013-Jul-21 09:33N 51°54' W 008°27'5 5.0
2013-Jul-21 08:33N 51°52' W 008°20'3 3.2
2013-Jul-21 07:33N 51°50' W 008°16'4 3.8
2013-Jul-21 06:33N 51°46' W 008°15'3 3.0
2013-Jul-21 05:34N 51°44' W 008°12'3 3.2
2013-Jul-21 04:34N 51°42' W 008°08'3 3.3
2013-Jul-21 03:34N 51°40' W 008°04'3 3.2
2013-Jul-21 02:33N 51°38' W 008°00'3 3.1
2013-Jul-21 01:33N 51°36' W 007°57'4 3.4
2013-Jul-21 00:28N 51°33' W 007°53'4 4.4
2013-Jul-20 23:29N 51°30' W 007°48'4 4.6
2013-Jul-20 22:34N 51°26' W 007°43'5 4.1
2013-Jul-20 21:24N 51°23' W 007°38'  
2013-Jul-15 19:03N 50°34' W 002°02'4 7.5
2013-Jul-15 18:31N 50°35' W 001°55'7 7.2
2013-Jul-15 17:32N 50°38' W 001°45'8 7.3
2013-Jul-15 16:26N 50°42' W 001°34'7 8.0
2013-Jul-15 15:33N 50°45' W 001°24'6 5.7
2013-Jul-15 14:33N 50°49' W 001°18'7 0.3
2013-Jul-14 14:25N 50°54' W 001°25'0 0.0
2013-Jul-14 13:31N 50°54' W 001°25'0 0.0
2013-Jul-14 12:31N 50°54' W 001°25'0 0.0
2013-Jul-14 11:31N 50°54' W 001°25'0 0.0
2013-Jul-14 10:28N 50°54' W 001°25'0 0.0
2013-Jul-14 02:31N 50°54' W 001°25'0 0.0
2013-Jul-13 20:19N 50°54' W 001°25'0 0.0
2013-Jul-13 18:13N 50°54' W 001°25'  

Dump ship's entire track history